createdAt,value
2024-02-06T00:15:56.374Z,11.10
2024-02-06T02:16:04.568Z,9.00
2024-02-06T02:46:06.260Z,6.70
2024-02-06T03:16:08.157Z,12.60
2024-02-06T04:16:11.537Z,12.30
2024-02-06T04:46:13.079Z,9.10
2024-02-06T05:16:14.872Z,7.83
2024-02-06T05:46:16.425Z,11.67
2024-02-06T06:16:17.977Z,11.40
2024-02-06T06:46:19.563Z,11.37
2024-02-06T07:46:22.646Z,9.00
2024-02-06T08:16:24.215Z,10.13
2024-02-06T08:46:28.664Z,8.87
2024-02-06T09:16:31.054Z,15.87
2024-02-06T09:46:32.663Z,10.43
2024-02-06T10:16:34.312Z,9.60
2024-02-06T10:46:36.141Z,5.10
2024-02-06T11:16:45.160Z,6.77
2024-02-06T11:46:48.192Z,10.17
2024-02-06T12:16:49.811Z,11.10
2024-02-06T12:46:51.437Z,13.10
2024-02-06T13:16:53.566Z,13.03
2024-02-06T13:46:55.248Z,9.53
2024-02-06T14:16:56.746Z,6.97
2024-02-06T14:46:58.271Z,2.63
2024-02-06T15:16:59.823Z,7.80
2024-02-06T15:47:01.304Z,8.50
2024-02-06T16:17:04.542Z,4.83
2024-02-06T16:47:06.539Z,6.17
2024-02-06T17:17:08.660Z,11.03
2024-02-06T17:47:10.148Z,11.33
2024-02-06T18:17:17.754Z,12.03
2024-02-06T18:47:19.255Z,10.40
2024-02-06T19:17:20.810Z,13.60
2024-02-06T19:47:22.962Z,17.97
2024-02-06T20:17:24.607Z,1.23
2024-02-06T20:47:26.114Z,2.23
2024-02-06T21:17:30.474Z,0.60
2024-02-06T21:47:35.170Z,3.00
2024-02-06T22:17:36.774Z,1.90
2024-02-06T22:47:39.274Z,1.10
2024-02-06T23:17:42.859Z,0.40
2024-02-06T23:47:44.498Z,1.13
